Terminal Aerodrome Forecast
Issued by NWS Jackson, MS

Home | Current Version | Previous Version | Text Only | Print | Product List | Glossary On
Versions: 1 2 3 4 5 6 7 8 9 10 11 12 13 14 15
000
FTUS44 KJAN 252000 AAA
TAFJAN
TAF AMD
KJAN 252013Z 2520/2618 22016G22KT P6SM FEW100 SCT250
     FM260000 29011KT P6SM SCT050 BKN100
     FM261500 32010KT P6SM SCT100=

USA.gov is the U.S. government's official web portal to all federal, state and local government web resources and services.